createdAt,value
2018-09-23T00:00:15.508Z,93.86
2018-09-23T00:02:42.421Z,94.84
2018-09-23T00:05:09.407Z,94.57
2018-09-23T00:07:36.279Z,93.93
2018-09-23T00:10:03.251Z,94.12
2018-09-23T00:12:30.164Z,94.02
2018-09-23T00:17:30.732Z,94.11
2018-09-23T00:19:57.641Z,94.31
2018-09-23T00:22:24.641Z,94.23
2018-09-23T00:24:51.497Z,94.58
2018-09-23T00:27:18.398Z,94.88
2018-09-23T00:29:49.757Z,95.19
2018-09-23T00:32:17.341Z,94.85
2018-09-23T00:34:44.456Z,94.82
2018-09-23T00:37:11.385Z,95.66
2018-09-23T00:39:38.301Z,94.47
2018-09-23T00:42:05.204Z,94.44
2018-09-23T00:44:32.146Z,94.37
2018-09-23T00:46:59.072Z,94.50
2018-09-23T00:49:25.986Z,95.05
2018-09-23T00:51:52.884Z,94.55
2018-09-23T00:54:19.780Z,95.42
2018-09-23T00:56:46.700Z,95.69
2018-09-23T00:59:13.660Z,95.16
2018-09-23T01:01:40.560Z,94.68
2018-09-23T01:04:07.472Z,94.60
2018-09-23T01:06:34.363Z,95.61
2018-09-23T01:09:01.284Z,95.31
2018-09-23T01:11:28.216Z,94.92
2018-09-23T01:13:55.168Z,94.88
2018-09-23T01:16:22.137Z,95.69
2018-09-23T01:18:49.300Z,95.87
2018-09-23T01:21:16.219Z,95.12
2018-09-23T01:23:43.119Z,95.77
2018-09-23T01:26:10.040Z,95.23
2018-09-23T01:28:37.493Z,94.91
2018-09-23T01:31:04.416Z,95.85
2018-09-23T01:33:31.340Z,95.02
2018-09-23T01:35:58.260Z,96.23
2018-09-23T01:38:25.276Z,95.62
2018-09-23T01:40:52.217Z,96.50
2018-09-23T01:43:19.127Z,95.68
2018-09-23T01:45:46.037Z,96.14
2018-09-23T01:48:12.976Z,95.91
2018-09-23T01:50:39.912Z,95.35
2018-09-23T01:53:06.820Z,95.41
2018-09-23T01:55:33.723Z,95.51
2018-09-23T01:58:00.644Z,96.48
2018-09-23T02:00:27.583Z,96.29
2018-09-23T02:02:54.492Z,95.66
2018-09-23T02:05:21.408Z,95.63
2018-09-23T02:07:48.328Z,96.52
2018-09-23T02:10:15.328Z,95.84
2018-09-23T02:12:42.243Z,96.32
2018-09-23T02:15:09.184Z,95.79
2018-09-23T02:17:36.076Z,95.49
2018-09-23T02:20:03.017Z,96.22
2018-09-23T02:22:29.949Z,96.68
2018-09-23T02:24:56.860Z,96.49
2018-09-23T02:27:23.762Z,95.69
2018-09-23T02:29:50.683Z,95.76
2018-09-23T02:32:17.581Z,96.33
2018-09-23T02:34:44.492Z,96.49
2018-09-23T02:37:11.399Z,96.15
2018-09-23T02:39:38.322Z,96.79
2018-09-23T02:42:05.332Z,96.57
2018-09-23T02:44:32.253Z,96.38
2018-09-23T02:46:59.179Z,96.57
2018-09-23T02:49:26.113Z,95.59
2018-09-23T02:51:53.008Z,95.85
2018-09-23T02:54:19.908Z,96.27
2018-09-23T02:56:46.824Z,95.95
2018-09-23T02:59:13.776Z,95.70
2018-09-23T03:01:40.689Z,95.91
2018-09-23T03:04:07.624Z,95.76
2018-09-23T03:06:34.549Z,96.00
2018-09-23T03:09:01.465Z,95.87
2018-09-23T03:11:28.390Z,96.37
2018-09-23T03:13:55.297Z,96.51
2018-09-23T03:16:22.257Z,96.50
2018-09-23T03:18:49.165Z,96.38
2018-09-23T03:21:16.090Z,95.92
2018-09-23T03:23:43.039Z,96.50
2018-09-23T03:26:09.989Z,96.25
2018-09-23T03:28:36.886Z,96.41
2018-09-23T03:31:03.820Z,96.41
2018-09-23T03:33:30.764Z,95.72
2018-09-23T03:35:57.664Z,96.68
2018-09-23T03:38:24.604Z,95.70
2018-09-23T03:40:51.508Z,95.79
2018-09-23T03:43:18.405Z,96.04
2018-09-23T03:45:45.339Z,96.63
2018-09-23T03:48:12.262Z,95.99
2018-09-23T03:50:39.192Z,95.96
2018-09-23T03:53:06.108Z,96.47
2018-09-23T03:55:33.004Z,95.79
2018-09-23T03:57:59.911Z,95.88
2018-09-23T04:00:26.809Z,96.49
2018-09-23T04:02:53.697Z,95.53
2018-09-23T04:05:20.597Z,96.15
2018-09-23T04:07:47.546Z,95.25
2018-09-23T04:10:14.466Z,95.83
2018-09-23T04:12:41.398Z,95.41
2018-09-23T04:15:08.385Z,95.38
2018-09-23T04:17:35.272Z,96.34
2018-09-23T04:20:02.229Z,96.43
2018-09-23T04:22:29.126Z,95.55
2018-09-23T04:24:56.008Z,95.15
2018-09-23T04:27:22.891Z,95.40
2018-09-23T04:29:49.788Z,95.29
2018-09-23T04:32:16.704Z,95.69
2018-09-23T04:34:43.620Z,95.63
2018-09-23T04:37:10.524Z,96.19
2018-09-23T04:39:37.418Z,95.71
2018-09-23T04:42:04.329Z,95.53
2018-09-23T04:44:31.221Z,96.26
2018-09-23T04:46:58.140Z,96.40
2018-09-23T04:49:25.484Z,95.72
2018-09-23T04:51:52.374Z,95.82
2018-09-23T04:54:19.270Z,95.77
2018-09-23T04:56:46.168Z,96.36
2018-09-23T04:59:13.054Z,96.02
2018-09-23T05:01:39.980Z,96.15
2018-09-23T05:04:06.877Z,96.16
2018-09-23T05:06:33.789Z,95.21
2018-09-23T05:09:00.691Z,96.06
2018-09-23T05:11:27.604Z,95.92
2018-09-23T05:13:54.513Z,95.90
2018-09-23T05:16:21.460Z,95.85
2018-09-23T05:18:48.352Z,95.80
2018-09-23T05:21:15.241Z,96.11
2018-09-23T05:23:42.124Z,95.71
2018-09-23T05:26:09.051Z,95.22
2018-09-23T05:28:35.968Z,95.95
2018-09-23T05:31:02.956Z,95.43
2018-09-23T05:33:29.800Z,94.95
2018-09-23T05:35:56.709Z,94.89
2018-09-23T05:38:23.602Z,95.44
2018-09-23T05:40:50.515Z,95.89
2018-09-23T05:43:17.453Z,95.38
2018-09-23T05:45:44.351Z,95.15
2018-09-23T05:48:11.248Z,95.32
2018-09-23T05:50:38.161Z,95.63
2018-09-23T05:53:05.145Z,95.16
2018-09-23T05:55:31.984Z,95.72
2018-09-23T05:57:58.925Z,94.80
2018-09-23T06:00:26.148Z,95.22
2018-09-23T06:02:54.354Z,95.23
2018-09-23T06:05:21.244Z,94.84
2018-09-23T06:07:48.140Z,95.56
2018-09-23T06:10:15.028Z,95.19
2018-09-23T06:12:41.935Z,95.52
2018-09-23T06:15:08.842Z,95.18
2018-09-23T06:17:35.748Z,95.31
2018-09-23T06:20:02.748Z,95.82
2018-09-23T06:22:29.656Z,95.43
2018-09-23T06:24:56.561Z,96.03
2018-09-23T06:27:23.493Z,96.12
2018-09-23T06:29:50.389Z,96.28
2018-09-23T06:32:17.299Z,96.60
2018-09-23T06:34:44.192Z,95.99
2018-09-23T06:37:11.693Z,95.62
2018-09-23T06:39:38.615Z,96.72
2018-09-23T06:42:05.556Z,95.96
2018-09-23T06:44:32.453Z,96.66
2018-09-23T06:46:59.869Z,96.57
2018-09-23T06:49:26.752Z,96.54
2018-09-23T06:51:53.749Z,96.07
2018-09-23T06:54:20.640Z,95.98
2018-09-23T06:56:47.549Z,96.55
2018-09-23T06:59:14.464Z,96.00
2018-09-23T07:01:41.368Z,96.15
2018-09-23T07:04:08.277Z,96.30
2018-09-23T07:06:35.165Z,95.25
2018-09-23T07:09:02.108Z,95.60
2018-09-23T07:11:28.997Z,95.37
2018-09-23T07:13:55.916Z,96.21
2018-09-23T07:16:22.850Z,95.85
2018-09-23T07:18:49.741Z,95.98
2018-09-23T07:21:16.643Z,96.09
2018-09-23T07:23:43.604Z,95.72
2018-09-23T07:26:10.465Z,95.43
2018-09-23T07:28:37.336Z,95.63
2018-09-23T07:31:04.260Z,94.60
2018-09-23T07:33:31.148Z,95.26
2018-09-23T07:36:04.719Z,95.41
2018-09-23T07:38:31.613Z,95.73
2018-09-23T07:40:58.520Z,94.76
2018-09-23T07:43:25.533Z,94.56
2018-09-23T07:45:52.420Z,95.19
2018-09-23T07:48:19.312Z,93.51
2018-09-23T07:50:46.200Z,94.06
2018-09-23T07:53:13.117Z,93.94
2018-09-23T07:55:40.005Z,93.60
2018-09-23T07:58:06.896Z,93.80
2018-09-23T08:00:33.788Z,93.81
2018-09-23T08:03:00.685Z,93.00
2018-09-23T08:05:27.593Z,92.85
2018-09-23T08:07:54.504Z,91.98
2018-09-23T08:10:21.553Z,91.97
2018-09-23T08:12:48.595Z,91.47
2018-09-23T08:15:15.413Z,90.47
2018-09-23T08:17:42.565Z,91.15
2018-09-23T08:20:09.603Z,90.08
2018-09-23T08:22:36.380Z,89.71
2018-09-23T08:25:03.575Z,88.83
2018-09-23T08:27:30.489Z,89.11
2018-09-23T08:29:57.377Z,88.91
2018-09-23T08:32:24.322Z,88.60
2018-09-23T08:34:51.229Z,88.10
2018-09-23T08:37:18.158Z,87.79
2018-09-23T08:39:45.052Z,87.35
2018-09-23T08:42:11.900Z,87.11
2018-09-23T08:44:38.865Z,86.50
2018-09-23T08:47:05.740Z,88.01
2018-09-23T08:52:06.672Z,88.30
2018-09-23T08:54:33.572Z,87.73
2018-09-23T08:57:00.461Z,87.52
2018-09-23T08:59:27.384Z,87.24
2018-09-23T09:01:54.262Z,87.90
2018-09-23T09:04:21.152Z,87.12
2018-09-23T09:06:48.105Z,86.95
2018-09-23T09:09:15.030Z,86.61
2018-09-23T09:11:41.967Z,85.54
2018-09-23T09:14:08.844Z,86.51
2018-09-23T09:16:35.745Z,85.00
2018-09-23T09:19:02.673Z,85.30
2018-09-23T09:21:29.578Z,83.94
2018-09-23T09:23:56.468Z,83.89
2018-09-23T09:26:23.356Z,84.21
2018-09-23T09:28:50.253Z,84.19
2018-09-23T09:31:17.141Z,83.75
2018-09-23T09:33:44.063Z,84.12
2018-09-23T09:36:10.969Z,83.95
2018-09-23T09:38:37.940Z,82.77
2018-09-23T09:41:06.348Z,82.82
2018-09-23T09:43:34.877Z,83.25
2018-09-23T09:46:02.480Z,82.97
2018-09-23T09:48:30.082Z,82.11
2018-09-23T09:50:57.004Z,81.70
2018-09-23T09:53:23.948Z,80.88
2018-09-23T09:55:50.822Z,80.22
2018-09-23T09:58:19.199Z,82.02
2018-09-23T10:00:46.164Z,80.73
2018-09-23T10:03:13.061Z,80.75
2018-09-23T10:05:39.981Z,80.46
2018-09-23T10:08:06.896Z,79.46
2018-09-23T10:10:33.832Z,79.56
2018-09-23T10:13:00.729Z,79.41
2018-09-23T10:15:27.689Z,78.23
2018-09-23T10:17:54.597Z,77.35
2018-09-23T10:20:21.517Z,78.06
2018-09-23T10:22:55.299Z,77.53
2018-09-23T10:25:22.131Z,75.50
2018-09-23T10:27:49.056Z,75.52
2018-09-23T10:30:15.949Z,76.33
2018-09-23T10:32:42.855Z,78.59
2018-09-23T10:35:10.751Z,78.50
2018-09-23T10:37:39.266Z,79.04
2018-09-23T10:40:06.975Z,78.78
2018-09-23T10:42:34.890Z,79.02
2018-09-23T10:45:03.956Z,79.51
2018-09-23T10:47:30.897Z,78.70
2018-09-23T10:49:57.816Z,78.81
2018-09-23T10:52:26.064Z,77.02
2018-09-23T10:54:53.028Z,77.40
2018-09-23T10:57:19.936Z,78.15
2018-09-23T10:59:46.858Z,76.40
2018-09-23T11:02:13.748Z,76.33
2018-09-23T11:04:40.632Z,76.97
2018-09-23T11:07:07.547Z,76.38
2018-09-23T11:09:34.486Z,75.06
2018-09-23T11:12:01.378Z,74.08
2018-09-23T11:14:28.334Z,74.55
2018-09-23T11:16:55.254Z,74.75
2018-09-23T11:19:22.157Z,75.10
2018-09-23T11:21:49.106Z,75.99
2018-09-23T11:24:15.998Z,75.52
2018-09-23T11:26:42.911Z,76.88
2018-09-23T11:29:09.814Z,76.34
2018-09-23T11:31:36.757Z,76.13
2018-09-23T11:34:03.676Z,74.65
2018-09-23T11:36:30.665Z,73.67
2018-09-23T11:38:57.580Z,72.73
2018-09-23T11:41:24.581Z,73.98
2018-09-23T11:43:51.486Z,73.49
2018-09-23T11:46:18.379Z,73.93
2018-09-23T11:48:45.297Z,72.96
2018-09-23T11:51:12.225Z,72.26
2018-09-23T11:53:39.129Z,73.91
2018-09-23T11:56:06.101Z,75.00
2018-09-23T11:58:33.025Z,74.56
2018-09-23T12:00:59.956Z,72.86
2018-09-23T12:03:26.873Z,73.83
2018-09-23T12:05:53.801Z,73.69
2018-09-23T12:08:20.742Z,74.68
2018-09-23T12:10:47.705Z,74.94
2018-09-23T12:13:14.618Z,72.72
2018-09-23T12:15:41.579Z,73.64
2018-09-23T12:18:08.480Z,74.77
2018-09-23T12:20:35.419Z,74.38
2018-09-23T12:23:02.319Z,74.62
2018-09-23T12:25:29.430Z,75.32
2018-09-23T12:27:56.337Z,75.30
2018-09-23T12:30:23.248Z,75.32
2018-09-23T12:32:50.173Z,76.14
2018-09-23T12:35:17.082Z,75.77
2018-09-23T12:37:43.988Z,75.57
2018-09-23T12:40:10.901Z,75.95
2018-09-23T12:42:37.796Z,76.04
2018-09-23T12:45:04.819Z,75.36
2018-09-23T12:47:31.737Z,76.29
2018-09-23T12:49:58.658Z,75.89
2018-09-23T12:52:25.528Z,75.01
2018-09-23T12:54:52.450Z,74.54
2018-09-23T12:57:19.348Z,75.70
2018-09-23T12:59:46.360Z,76.12
2018-09-23T13:02:13.284Z,76.54
2018-09-23T13:04:40.184Z,75.64
2018-09-23T13:07:07.090Z,76.19
2018-09-23T13:09:34.053Z,76.53
2018-09-23T13:12:00.981Z,76.82
2018-09-23T13:14:27.937Z,77.97
2018-09-23T13:16:54.836Z,78.45
2018-09-23T13:19:21.808Z,80.50
2018-09-23T13:21:48.722Z,80.95
2018-09-23T13:24:15.625Z,81.71
2018-09-23T13:26:42.520Z,83.50
2018-09-23T13:29:09.435Z,82.88
2018-09-23T13:31:36.376Z,83.48
2018-09-23T13:34:03.284Z,82.64
2018-09-23T13:36:30.202Z,83.81
2018-09-23T13:38:57.118Z,84.51
2018-09-23T13:41:24.088Z,85.70
2018-09-23T13:43:51.014Z,85.38
2018-09-23T13:46:17.964Z,85.33
2018-09-23T13:48:44.853Z,82.73
2018-09-23T13:51:11.760Z,83.46
2018-09-23T13:53:38.717Z,83.62
2018-09-23T13:56:05.645Z,85.12
2018-09-23T13:58:32.552Z,82.49
2018-09-23T14:00:59.493Z,82.13
2018-09-23T14:03:26.389Z,81.33
2018-09-23T14:05:53.317Z,80.59
2018-09-23T14:08:20.235Z,80.94
2018-09-23T14:10:47.149Z,80.39
2018-09-23T14:13:14.053Z,80.33
2018-09-23T14:15:40.944Z,81.45
2018-09-23T14:18:07.869Z,79.40
2018-09-23T14:20:34.777Z,80.57
2018-09-23T14:23:01.680Z,80.38
2018-09-23T14:25:28.584Z,79.51
2018-09-23T14:27:55.484Z,79.80
2018-09-23T14:30:22.394Z,80.75
2018-09-23T14:32:49.325Z,80.76
2018-09-23T14:35:16.228Z,81.24
2018-09-23T14:37:43.145Z,81.79
2018-09-23T14:40:10.036Z,81.32
2018-09-23T14:42:36.967Z,82.07
2018-09-23T14:45:04.453Z,80.99
2018-09-23T14:47:31.349Z,80.29
2018-09-23T14:49:58.259Z,80.20
2018-09-23T14:52:25.156Z,81.03
2018-09-23T14:54:52.181Z,80.54
2018-09-23T14:57:19.002Z,80.74
2018-09-23T14:59:45.967Z,80.81
2018-09-23T15:02:12.848Z,80.28
2018-09-23T15:04:39.769Z,79.63
2018-09-23T15:07:06.682Z,79.37
2018-09-23T15:09:33.605Z,78.60
2018-09-23T15:12:00.508Z,79.15
2018-09-23T15:14:27.437Z,80.16
2018-09-23T15:16:54.369Z,80.63
2018-09-23T15:19:21.305Z,81.20
2018-09-23T15:21:48.239Z,81.22
2018-09-23T15:24:15.151Z,81.97
2018-09-23T15:26:42.048Z,81.97
2018-09-23T15:29:08.937Z,82.42
2018-09-23T15:31:35.841Z,82.00
2018-09-23T15:34:02.749Z,82.56
2018-09-23T15:36:29.663Z,83.10
2018-09-23T15:38:56.556Z,83.21
2018-09-23T15:41:23.475Z,83.65
2018-09-23T15:43:50.393Z,83.28
2018-09-23T15:46:17.301Z,83.17
2018-09-23T15:48:44.228Z,83.25
2018-09-23T15:51:11.161Z,83.09
2018-09-23T15:53:38.068Z,82.43
2018-09-23T15:56:05.008Z,82.79
2018-09-23T15:58:31.936Z,83.10
2018-09-23T16:00:58.861Z,82.22
2018-09-23T16:03:25.776Z,82.70
2018-09-23T16:05:52.676Z,82.31
2018-09-23T16:08:19.569Z,82.13
2018-09-23T16:10:46.479Z,81.61
2018-09-23T16:13:13.397Z,81.96
2018-09-23T16:15:40.329Z,81.40
2018-09-23T16:18:07.261Z,81.99
2018-09-23T16:20:34.157Z,81.29
2018-09-23T16:23:01.044Z,80.95
2018-09-23T16:25:27.952Z,81.82
2018-09-23T16:27:54.896Z,82.04
2018-09-23T16:30:21.784Z,81.73
2018-09-23T16:32:48.724Z,81.71
2018-09-23T16:35:15.675Z,81.55
2018-09-23T16:37:42.721Z,81.07
2018-09-23T16:40:09.569Z,82.24
2018-09-23T16:42:36.478Z,81.77
2018-09-23T16:45:03.386Z,82.12
2018-09-23T16:47:31.524Z,81.28
2018-09-23T16:49:58.498Z,82.14
2018-09-23T16:52:25.572Z,81.87
2018-09-23T16:54:52.524Z,82.00
2018-09-23T16:57:19.533Z,82.03
2018-09-23T16:59:46.576Z,81.70
2018-09-23T17:02:13.556Z,82.42
2018-09-23T17:04:40.461Z,81.57
2018-09-23T17:07:07.367Z,81.95
2018-09-23T17:09:34.262Z,81.78
2018-09-23T17:12:01.223Z,82.66
2018-09-23T17:14:28.177Z,83.13
2018-09-23T17:16:55.114Z,82.96
2018-09-23T17:19:22.043Z,82.83
2018-09-23T17:21:49.040Z,83.42
2018-09-23T17:24:15.941Z,83.45
2018-09-23T17:26:42.893Z,83.91
2018-09-23T17:29:09.791Z,84.25
2018-09-23T17:31:36.730Z,83.85
2018-09-23T17:34:03.633Z,83.80
2018-09-23T17:36:30.572Z,84.65
2018-09-23T17:39:06.225Z,85.09
2018-09-23T17:41:40.413Z,85.22
2018-09-23T17:44:07.446Z,84.65
2018-09-23T17:46:34.690Z,85.11
2018-09-23T17:49:01.688Z,86.05
2018-09-23T17:51:28.601Z,86.09
2018-09-23T17:53:55.523Z,85.97
2018-09-23T17:56:22.517Z,85.41
2018-09-23T17:58:49.421Z,85.82
2018-09-23T18:01:16.372Z,86.47
2018-09-23T18:03:43.257Z,86.35
2018-09-23T18:06:10.197Z,86.45
2018-09-23T18:08:37.133Z,85.98
2018-09-23T18:11:04.077Z,85.91
2018-09-23T18:13:30.985Z,86.10
2018-09-23T18:15:57.888Z,85.86
2018-09-23T18:18:24.913Z,86.15
2018-09-23T18:20:51.843Z,86.88
2018-09-23T18:23:18.829Z,85.96
2018-09-23T18:25:45.740Z,85.89
2018-09-23T18:28:12.664Z,85.56
2018-09-23T18:30:39.548Z,85.54
2018-09-23T18:33:06.553Z,84.61
2018-09-23T18:35:33.490Z,84.42
2018-09-23T18:38:00.425Z,83.74
2018-09-23T18:40:27.348Z,83.72
2018-09-23T18:42:54.264Z,83.69
2018-09-23T18:45:21.199Z,83.92
2018-09-23T18:47:48.113Z,84.26
2018-09-23T18:50:15.041Z,83.26
2018-09-23T18:52:41.949Z,84.35
2018-09-23T18:55:14.559Z,84.75
2018-09-23T18:57:41.480Z,83.81
2018-09-23T19:00:08.425Z,83.54
2018-09-23T19:02:35.660Z,83.90
2018-09-23T19:05:02.593Z,83.80
2018-09-23T19:07:29.510Z,83.95
2018-09-23T19:09:56.428Z,83.60
2018-09-23T19:12:30.100Z,84.30
2018-09-23T19:14:57.009Z,83.44
2018-09-23T19:17:23.937Z,83.06
2018-09-23T19:19:56.590Z,83.16
2018-09-23T19:22:29.329Z,81.97
2018-09-23T19:24:56.250Z,82.01
2018-09-23T19:27:23.456Z,81.63
2018-09-23T19:29:50.381Z,81.42
2018-09-23T19:32:17.306Z,81.03
2018-09-23T19:34:44.221Z,81.36
2018-09-23T19:37:11.126Z,81.77
2018-09-23T19:39:38.069Z,81.50
2018-09-23T19:42:04.998Z,80.91
2018-09-23T19:44:31.912Z,81.21
2018-09-23T19:46:58.878Z,81.32
2018-09-23T19:49:25.828Z,82.20
2018-09-23T19:51:52.713Z,81.08
2018-09-23T19:54:19.641Z,81.31
2018-09-23T19:56:46.549Z,81.45
2018-09-23T19:59:13.494Z,81.43
2018-09-23T20:01:40.390Z,81.35
2018-09-23T20:04:07.294Z,81.35
2018-09-23T20:06:34.213Z,82.41
2018-09-23T20:09:01.127Z,82.65
2018-09-23T20:11:28.268Z,82.85
2018-09-23T20:13:55.186Z,81.91
2018-09-23T20:16:22.108Z,82.60
2018-09-23T20:18:49.008Z,82.28
2018-09-23T20:21:15.908Z,83.11
2018-09-23T20:23:43.029Z,83.08
2018-09-23T20:26:09.945Z,83.24
2018-09-23T20:28:36.868Z,83.11
2018-09-23T20:31:03.788Z,82.69
2018-09-23T20:33:30.761Z,81.96
2018-09-23T20:35:57.694Z,82.42
2018-09-23T20:38:24.594Z,82.25
2018-09-23T20:40:51.534Z,82.38
2018-09-23T20:43:18.449Z,83.44
2018-09-23T20:45:45.361Z,82.71
2018-09-23T20:48:12.289Z,83.29
2018-09-23T20:50:39.185Z,83.06
2018-09-23T20:53:06.100Z,82.55
2018-09-23T20:55:33.008Z,83.58
2018-09-23T20:57:59.912Z,82.54
2018-09-23T21:00:26.820Z,82.81
2018-09-23T21:02:53.713Z,83.04
2018-09-23T21:05:20.610Z,83.25
2018-09-23T21:07:47.525Z,83.55
2018-09-23T21:10:14.479Z,83.04
2018-09-23T21:12:41.331Z,82.98
2018-09-23T21:15:08.828Z,82.85
2018-09-23T21:17:36.061Z,82.73
2018-09-23T21:20:09.936Z,83.61
2018-09-23T21:22:36.824Z,83.84
2018-09-23T21:25:03.847Z,83.12
2018-09-23T21:27:30.744Z,83.29
2018-09-23T21:29:57.628Z,83.24
2018-09-23T21:32:24.531Z,84.01
2018-09-23T21:34:51.428Z,84.42
2018-09-23T21:37:18.312Z,84.10
2018-09-23T21:39:45.304Z,83.87
2018-09-23T21:42:12.189Z,83.60
2018-09-23T21:44:39.084Z,84.44
2018-09-23T21:47:05.977Z,83.79
2018-09-23T21:49:32.877Z,84.37
2018-09-23T21:51:59.803Z,84.25
2018-09-23T21:54:26.697Z,84.47
2018-09-23T21:56:53.598Z,84.25
2018-09-23T21:59:20.495Z,84.98
2018-09-23T22:01:47.394Z,84.97
2018-09-23T22:04:14.297Z,84.69
2018-09-23T22:06:41.209Z,84.40
2018-09-23T22:09:08.394Z,84.13
2018-09-23T22:11:35.349Z,84.88
2018-09-23T22:14:02.260Z,84.57
2018-09-23T22:16:29.160Z,84.87
2018-09-23T22:18:56.048Z,84.05
2018-09-23T22:21:22.976Z,84.48
2018-09-23T22:23:49.869Z,84.42
2018-09-23T22:26:16.764Z,85.20
2018-09-23T22:28:43.657Z,85.20
2018-09-23T22:31:10.565Z,84.84
2018-09-23T22:33:37.461Z,84.00
2018-09-23T22:36:04.369Z,83.12
2018-09-23T22:38:31.253Z,83.79
2018-09-23T22:40:58.180Z,82.47
2018-09-23T22:43:25.095Z,82.25
2018-09-23T22:45:52.012Z,82.10
2018-09-23T22:48:22.548Z,82.82
2018-09-23T22:50:49.469Z,82.53
2018-09-23T22:53:16.896Z,81.66
2018-09-23T22:55:43.857Z,81.71
2018-09-23T22:58:10.750Z,81.23
2018-09-23T23:00:37.688Z,82.51
2018-09-23T23:03:04.616Z,82.30
2018-09-23T23:05:31.545Z,81.54
2018-09-23T23:07:58.505Z,81.73
2018-09-23T23:10:25.400Z,81.43
2018-09-23T23:12:52.644Z,81.40
2018-09-23T23:15:19.617Z,81.57
2018-09-23T23:17:46.530Z,80.39
2018-09-23T23:20:13.489Z,81.00
2018-09-23T23:22:40.387Z,80.78
2018-09-23T23:25:07.320Z,81.58
2018-09-23T23:27:41.100Z,81.30
2018-09-23T23:30:08.039Z,80.86
2018-09-23T23:32:34.937Z,80.25
2018-09-23T23:35:01.870Z,80.34
2018-09-23T23:37:28.808Z,81.39
2018-09-23T23:39:55.837Z,81.38
2018-09-23T23:42:22.928Z,81.66
2018-09-23T23:44:49.856Z,82.05
2018-09-23T23:47:16.873Z,81.29
2018-09-23T23:49:43.773Z,82.23
2018-09-23T23:52:10.688Z,82.45
2018-09-23T23:54:37.576Z,82.54
2018-09-23T23:57:04.523Z,82.66
2018-09-23T23:59:31.432Z,82.11
